createdAt,value
2019-03-08T00:01:59.935Z,2.65
2019-03-08T00:04:30.429Z,2.55
2019-03-08T00:07:00.906Z,5.58
2019-03-08T00:09:31.460Z,7.22
2019-03-08T00:12:01.953Z,5.37
2019-03-08T00:14:32.620Z,3.98
2019-03-08T00:17:03.207Z,3.60
2019-03-08T00:19:33.720Z,5.70
2019-03-08T00:22:04.165Z,4.12
2019-03-08T00:24:34.736Z,2.90
2019-03-08T00:27:05.528Z,3.62
2019-03-08T00:29:35.987Z,3.05
2019-03-08T00:32:06.673Z,2.20
2019-03-08T00:34:37.129Z,4.25
2019-03-08T00:37:09.087Z,2.50
2019-03-08T00:39:39.923Z,7.15
2019-03-08T00:42:10.441Z,8.90
2019-03-08T00:44:40.902Z,5.47
2019-03-08T00:47:11.469Z,7.87
2019-03-08T00:49:41.866Z,4.65
2019-03-08T00:52:12.511Z,6.03
2019-03-08T00:54:43.002Z,4.90
2019-03-08T00:57:13.977Z,7.17
2019-03-08T00:59:44.428Z,5.20
2019-03-08T01:02:14.937Z,3.08
2019-03-08T01:04:45.690Z,6.75
2019-03-08T01:07:16.128Z,6.33
2019-03-08T01:09:46.660Z,6.53
2019-03-08T01:12:17.152Z,2.50
2019-03-08T01:14:47.630Z,3.72
2019-03-08T01:17:18.222Z,5.40
2019-03-08T01:19:48.735Z,7.58
2019-03-08T01:22:19.191Z,10.20
2019-03-08T01:24:49.663Z,2.92
2019-03-08T01:27:20.139Z,6.12
2019-03-08T01:29:50.627Z,8.33
2019-03-08T01:32:21.228Z,4.87
2019-03-08T01:34:51.708Z,6.50
2019-03-08T01:37:22.187Z,5.85
2019-03-08T01:39:52.703Z,4.90
2019-03-08T01:42:23.181Z,7.70
2019-03-08T01:44:53.698Z,6.50
2019-03-08T01:47:24.242Z,5.20
2019-03-08T01:49:54.731Z,7.97
2019-03-08T01:52:25.181Z,7.70
2019-03-08T01:54:55.721Z,5.92
2019-03-08T01:57:26.166Z,6.20
2019-03-08T01:59:56.636Z,5.67
2019-03-08T02:02:27.179Z,9.88
2019-03-08T02:04:57.648Z,3.40
2019-03-08T02:07:28.202Z,6.60
2019-03-08T02:09:58.741Z,6.00
2019-03-08T02:12:29.209Z,7.97
2019-03-08T02:14:59.679Z,8.77
2019-03-08T02:17:30.257Z,7.35
2019-03-08T02:20:00.726Z,5.90
2019-03-08T02:22:31.179Z,3.98
2019-03-08T02:25:01.712Z,3.37
2019-03-08T02:27:32.171Z,4.35
2019-03-08T02:30:02.727Z,4.50
2019-03-08T02:32:33.275Z,3.10
2019-03-08T02:35:03.930Z,4.12
2019-03-08T02:37:34.396Z,2.90
2019-03-08T02:40:19.306Z,4.05
2019-03-08T02:42:49.816Z,2.50
2019-03-08T02:45:20.566Z,3.20
2019-03-08T02:47:51.151Z,5.80
2019-03-08T02:50:21.622Z,3.40
2019-03-08T02:52:52.105Z,5.33
2019-03-08T02:55:22.639Z,2.67
2019-03-08T02:57:53.412Z,7.12
2019-03-08T03:00:24.898Z,2.63
2019-03-08T03:02:55.449Z,5.33
2019-03-08T03:05:25.923Z,8.88
2019-03-08T03:07:56.370Z,4.10
2019-03-08T03:10:26.915Z,6.30
2019-03-08T03:12:57.416Z,8.60
2019-03-08T03:15:27.930Z,6.58
2019-03-08T03:17:58.497Z,10.68
2019-03-08T03:20:28.964Z,7.12
2019-03-08T03:22:59.698Z,9.53
2019-03-08T03:25:30.230Z,7.87
2019-03-08T03:28:00.689Z,8.23
2019-03-08T03:30:31.224Z,7.20
2019-03-08T03:33:01.780Z,13.70
2019-03-08T03:35:32.474Z,11.03
2019-03-08T03:38:02.950Z,6.25
2019-03-08T03:40:34.238Z,5.60
2019-03-08T03:43:05.011Z,7.58
2019-03-08T03:45:35.465Z,6.62
2019-03-08T03:48:06.263Z,6.58
2019-03-08T03:50:36.694Z,10.20
2019-03-08T03:53:07.428Z,4.60
2019-03-08T03:55:38.887Z,4.60
2019-03-08T03:58:09.424Z,6.45
2019-03-08T04:00:41.123Z,5.50
2019-03-08T04:03:11.712Z,4.78
2019-03-08T04:05:42.200Z,3.92
2019-03-08T04:08:12.710Z,3.50
2019-03-08T04:10:43.214Z,5.00
2019-03-08T04:13:13.934Z,2.42
2019-03-08T04:15:44.424Z,6.62
2019-03-08T04:18:16.640Z,3.35
2019-03-08T04:20:47.119Z,3.47
2019-03-08T04:23:17.666Z,5.08
2019-03-08T04:25:48.485Z,5.22
2019-03-08T04:28:18.946Z,4.95
2019-03-08T04:30:49.457Z,5.60
2019-03-08T04:33:19.998Z,6.10
2019-03-08T04:35:50.527Z,6.85
2019-03-08T04:38:21.083Z,4.53
2019-03-08T04:40:51.662Z,8.58
2019-03-08T04:43:22.136Z,3.15
2019-03-08T04:45:52.650Z,4.78
2019-03-08T04:48:23.225Z,6.57
2019-03-08T04:50:53.622Z,4.00
2019-03-08T04:53:24.082Z,5.80
2019-03-08T04:55:54.666Z,2.60
2019-03-08T04:58:25.171Z,5.78
2019-03-08T05:00:55.686Z,5.40
2019-03-08T05:03:26.272Z,6.50
2019-03-08T05:05:56.763Z,8.00
2019-03-08T05:08:27.245Z,3.90
2019-03-08T05:10:57.803Z,4.50
2019-03-08T05:13:28.337Z,4.17
2019-03-08T05:15:58.803Z,5.83
2019-03-08T05:18:29.351Z,2.10
2019-03-08T05:20:59.854Z,6.33
2019-03-08T05:23:30.307Z,2.72
2019-03-08T05:26:00.836Z,3.10
2019-03-08T05:28:31.319Z,3.58
2019-03-08T05:31:02.107Z,8.65
2019-03-08T05:33:32.653Z,15.20
2019-03-08T05:36:03.179Z,5.97
2019-03-08T05:38:33.676Z,5.10
2019-03-08T05:41:04.235Z,7.17
2019-03-08T05:43:34.899Z,6.87
2019-03-08T05:46:05.379Z,4.78
2019-03-08T05:48:36.010Z,3.15
2019-03-08T05:51:06.509Z,3.30
2019-03-08T05:53:36.991Z,4.12
2019-03-08T05:56:07.561Z,4.30
2019-03-08T05:58:38.104Z,4.40
2019-03-08T06:01:08.572Z,2.60
2019-03-08T06:03:39.106Z,4.70
2019-03-08T06:06:09.561Z,8.20
2019-03-08T06:08:40.093Z,11.65
2019-03-08T06:11:10.622Z,3.80
2019-03-08T06:13:41.046Z,11.50
2019-03-08T06:16:11.487Z,8.07
2019-03-08T06:18:42.074Z,23.77
2019-03-08T06:21:12.547Z,17.50
2019-03-08T06:23:43.234Z,12.33
2019-03-08T06:26:13.760Z,21.30
2019-03-08T06:28:44.282Z,20.12
2019-03-08T06:31:14.942Z,15.80
2019-03-08T06:33:45.421Z,26.65
2019-03-08T06:36:16.058Z,23.32
2019-03-08T06:38:46.398Z,13.43
2019-03-08T06:41:16.963Z,18.70
2019-03-08T06:43:47.447Z,16.50
2019-03-08T06:46:17.935Z,25.32
2019-03-08T06:48:48.495Z,23.10
2019-03-08T06:51:19.012Z,28.25
2019-03-08T06:53:49.518Z,23.30
2019-03-08T06:56:20.095Z,25.23
2019-03-08T06:58:56.905Z,25.65
2019-03-08T07:01:30.470Z,27.40
2019-03-08T07:04:00.929Z,28.50
2019-03-08T07:06:31.396Z,35.20
2019-03-08T07:09:01.941Z,46.95
2019-03-08T07:11:32.381Z,35.25
2019-03-08T07:14:02.859Z,38.20
2019-03-08T07:16:33.444Z,45.20
2019-03-08T07:19:03.920Z,38.60
2019-03-08T07:21:53.382Z,37.40
2019-03-08T07:24:41.692Z,39.00
2019-03-08T07:27:22.873Z,46.75
2019-03-08T07:30:10.918Z,39.53
2019-03-08T07:32:53.196Z,23.90
2019-03-08T07:35:51.855Z,39.23
2019-03-08T07:38:41.305Z,27.45
2019-03-08T07:41:39.923Z,42.73
2019-03-08T07:44:17.376Z,31.57
2019-03-08T07:47:18.859Z,40.92
2019-03-08T07:50:01.337Z,39.80
2019-03-08T07:53:03.106Z,51.45
2019-03-08T07:55:46.719Z,50.45
2019-03-08T07:58:52.986Z,40.78
2019-03-08T08:01:44.969Z,47.27
2019-03-08T08:04:33.196Z,39.87
2019-03-08T08:07:21.365Z,42.65
2019-03-08T08:10:16.866Z,36.98
2019-03-08T08:13:06.310Z,25.27
2019-03-08T08:15:54.546Z,22.52
2019-03-08T08:18:48.325Z,40.05
2019-03-08T08:21:46.513Z,31.53
2019-03-08T08:24:24.873Z,38.23
2019-03-08T08:27:12.839Z,40.83
2019-03-08T08:30:05.372Z,38.95
2019-03-08T08:32:47.120Z,23.57
2019-03-08T08:35:42.813Z,42.13
2019-03-08T08:41:29.227Z,28.52
2019-03-08T08:44:18.654Z,31.82
2019-03-08T08:47:08.085Z,25.15
2019-03-08T08:49:56.683Z,38.73
2019-03-08T08:52:39.651Z,23.77
2019-03-08T08:55:38.361Z,21.50
2019-03-08T08:58:26.898Z,33.78
2019-03-08T09:01:16.813Z,34.38
2019-03-08T09:04:06.429Z,32.77
2019-03-08T09:06:54.531Z,34.33
2019-03-08T09:09:41.724Z,28.20
2019-03-08T09:12:30.053Z,27.35
2019-03-08T09:15:22.579Z,31.00
2019-03-08T09:18:11.963Z,30.37
2019-03-08T09:21:16.711Z,34.33
2019-03-08T09:24:00.214Z,34.90
2019-03-08T09:26:49.747Z,25.10
2019-03-08T09:29:48.311Z,28.77
2019-03-08T09:32:33.294Z,14.97
2019-03-08T09:35:17.960Z,13.83
2019-03-08T09:38:09.873Z,26.23
2019-03-08T09:41:05.762Z,25.00
2019-03-08T09:43:42.665Z,18.00
2019-03-08T09:46:22.431Z,20.72
2019-03-08T09:49:16.517Z,24.00
2019-03-08T09:52:04.780Z,20.15
2019-03-08T09:54:57.295Z,17.47
2019-03-08T09:57:45.388Z,17.17
2019-03-08T10:00:27.495Z,14.73
2019-03-08T10:03:20.010Z,16.10
2019-03-08T10:06:02.698Z,19.90
2019-03-08T10:08:48.386Z,23.55
2019-03-08T10:11:26.998Z,25.35
2019-03-08T10:14:08.814Z,23.55
2019-03-08T10:16:53.559Z,28.20
2019-03-08T10:19:37.604Z,15.88
2019-03-08T10:22:26.393Z,24.73
2019-03-08T10:25:16.168Z,19.00
2019-03-08T10:28:17.466Z,15.43
2019-03-08T10:31:12.751Z,17.00
2019-03-08T10:34:08.269Z,27.52
2019-03-08T10:36:57.632Z,30.62
2019-03-08T10:39:43.624Z,16.30
2019-03-08T10:42:33.026Z,19.32
2019-03-08T10:45:25.884Z,24.02
2019-03-08T10:48:18.038Z,27.77
2019-03-08T10:50:59.294Z,21.42
2019-03-08T10:53:48.706Z,15.70
2019-03-08T10:56:38.170Z,11.68
2019-03-08T10:59:36.071Z,20.57
2019-03-08T11:02:39.585Z,26.40
2019-03-08T11:05:35.130Z,22.95
2019-03-08T11:08:30.011Z,21.05
2019-03-08T11:11:11.448Z,7.00
2019-03-08T11:13:59.897Z,15.95
2019-03-08T11:16:45.335Z,22.27
2019-03-08T11:19:39.414Z,24.55
2019-03-08T11:22:38.261Z,20.15
2019-03-08T11:25:35.269Z,18.75
2019-03-08T11:28:24.793Z,19.20
2019-03-08T11:31:25.049Z,14.90
2019-03-08T11:34:05.330Z,14.20
2019-03-08T11:36:54.845Z,18.15
2019-03-08T11:39:44.717Z,12.05
2019-03-08T11:42:40.514Z,18.10
2019-03-08T11:45:29.628Z,14.63
2019-03-08T11:48:22.234Z,18.90
2019-03-08T11:51:03.216Z,14.03
2019-03-08T11:53:56.142Z,14.90
2019-03-08T11:56:43.710Z,30.05
2019-03-08T11:59:40.182Z,21.00
2019-03-08T12:02:45.077Z,14.00
2019-03-08T12:05:40.690Z,14.80
2019-03-08T12:08:21.226Z,22.22
2019-03-08T12:11:41.822Z,14.18
2019-03-08T12:14:40.447Z,13.35
2019-03-08T12:17:29.869Z,15.85
2019-03-08T12:20:14.145Z,18.40
2019-03-08T12:23:06.339Z,13.60
2019-03-08T12:26:04.868Z,12.40
2019-03-08T12:28:50.305Z,21.55
2019-03-08T12:31:36.486Z,16.85
2019-03-08T12:34:25.115Z,16.40
2019-03-08T12:37:05.454Z,21.07
2019-03-08T12:40:01.217Z,18.25
2019-03-08T12:42:50.577Z,16.10
2019-03-08T12:45:30.862Z,20.23
2019-03-08T12:48:26.189Z,26.25
2019-03-08T12:51:15.644Z,19.85
2019-03-08T12:54:03.674Z,19.23
2019-03-08T12:56:52.996Z,17.50
2019-03-08T12:59:48.726Z,15.30
2019-03-08T13:02:27.897Z,8.58
2019-03-08T13:05:17.329Z,13.25
2019-03-08T13:07:55.082Z,18.17
2019-03-08T13:10:25.613Z,13.30
2019-03-08T13:12:56.058Z,14.00
2019-03-08T13:15:26.590Z,13.68
2019-03-08T13:17:57.093Z,12.28
2019-03-08T13:20:27.596Z,9.18
2019-03-08T13:22:58.191Z,8.90
2019-03-08T13:25:28.690Z,7.75
2019-03-08T13:27:59.068Z,9.85
2019-03-08T13:30:29.459Z,16.40
2019-03-08T13:33:00.006Z,11.10
2019-03-08T13:35:30.486Z,8.30
2019-03-08T13:38:01.042Z,9.85
2019-03-08T13:40:31.545Z,13.22
2019-03-08T13:43:01.992Z,11.33
2019-03-08T13:45:32.539Z,12.93
2019-03-08T13:48:03.029Z,18.73
2019-03-08T13:50:33.687Z,8.85
2019-03-08T13:53:04.314Z,13.75
2019-03-08T13:55:34.839Z,18.02
2019-03-08T13:58:05.321Z,12.33
2019-03-08T14:00:35.853Z,21.57
2019-03-08T14:03:06.526Z,14.58
2019-03-08T14:05:37.009Z,11.00
2019-03-08T14:08:07.655Z,21.25
2019-03-08T14:10:38.120Z,10.88
2019-03-08T14:13:08.576Z,9.70
2019-03-08T14:15:39.203Z,10.23
2019-03-08T14:18:09.670Z,20.30
2019-03-08T14:20:40.151Z,12.75
2019-03-08T14:23:10.705Z,16.37
2019-03-08T14:25:41.172Z,13.80
2019-03-08T14:28:11.852Z,13.10
2019-03-08T14:30:57.786Z,18.30
2019-03-08T14:33:26.864Z,11.83
2019-03-08T14:35:57.407Z,9.05
2019-03-08T14:38:36.589Z,20.48
2019-03-08T14:41:22.567Z,12.65
2019-03-08T14:43:58.490Z,14.00
2019-03-08T14:46:37.231Z,8.33
2019-03-08T14:49:07.853Z,18.37
2019-03-08T14:51:38.330Z,9.68
2019-03-08T14:54:09.915Z,13.00
2019-03-08T14:56:41.177Z,12.88
2019-03-08T14:59:15.416Z,14.85
2019-03-08T15:01:43.920Z,13.48
2019-03-08T15:04:14.456Z,11.83
2019-03-08T15:06:44.965Z,19.10
2019-03-08T15:09:15.867Z,10.48
2019-03-08T15:11:46.499Z,13.22
2019-03-08T15:14:16.925Z,16.50
2019-03-08T15:16:48.521Z,10.82
2019-03-08T15:19:19.373Z,10.93
2019-03-08T15:21:49.946Z,8.10
2019-03-08T15:24:20.567Z,15.98
2019-03-08T15:26:51.195Z,12.35
2019-03-08T15:29:21.958Z,17.30
2019-03-08T15:31:52.854Z,11.83
2019-03-08T15:34:23.444Z,13.60
2019-03-08T15:36:54.057Z,21.23
2019-03-08T15:39:24.716Z,15.72
2019-03-08T15:41:58.635Z,24.90
2019-03-08T15:44:28.279Z,17.15
2019-03-08T15:47:00.506Z,14.18
2019-03-08T15:49:31.702Z,19.47
2019-03-08T15:52:03.667Z,14.17
2019-03-08T15:54:34.497Z,19.65
2019-03-08T15:57:05.074Z,24.00
2019-03-08T15:59:35.609Z,19.92
2019-03-08T16:02:07.773Z,19.55
2019-03-08T16:04:38.348Z,21.45
2019-03-08T16:07:09.045Z,13.48
2019-03-08T16:09:39.589Z,7.80
2019-03-08T16:12:10.115Z,11.38
2019-03-08T16:14:40.717Z,11.57
2019-03-08T16:17:11.262Z,9.90
2019-03-08T16:19:41.797Z,14.43
2019-03-08T16:22:12.424Z,10.10
2019-03-08T16:24:42.992Z,11.90
2019-03-08T16:27:13.524Z,11.90
2019-03-08T16:29:44.430Z,16.35
2019-03-08T16:32:30.354Z,10.13
2019-03-08T16:35:00.478Z,13.50
2019-03-08T16:37:52.419Z,7.92
2019-03-08T16:40:43.848Z,13.80
2019-03-08T16:43:31.824Z,9.78
2019-03-08T16:46:09.659Z,11.08
2019-03-08T16:48:45.876Z,9.53
2019-03-08T16:51:25.367Z,10.32
2019-03-08T16:54:10.991Z,15.10
2019-03-08T16:57:06.174Z,12.88
2019-03-08T16:59:59.918Z,20.57
2019-03-08T17:02:52.178Z,6.85
2019-03-08T17:05:57.016Z,7.30
2019-03-08T17:08:55.107Z,14.93
2019-03-08T17:11:57.012Z,7.58
2019-03-08T17:14:50.607Z,9.90
2019-03-08T17:17:33.030Z,8.23
2019-03-08T17:20:11.842Z,5.45
2019-03-08T17:23:01.297Z,12.30
2019-03-08T17:25:40.252Z,8.35
2019-03-08T17:28:22.264Z,12.07
2019-03-08T17:30:58.484Z,9.45
2019-03-08T17:33:46.902Z,7.10
2019-03-08T17:36:35.662Z,17.63
2019-03-08T17:39:37.631Z,12.15
2019-03-08T17:42:15.801Z,8.60
2019-03-08T17:45:03.977Z,9.08
2019-03-08T17:47:52.105Z,8.75
2019-03-08T17:50:40.199Z,10.08
2019-03-08T17:53:22.104Z,14.15
2019-03-08T17:56:17.880Z,13.15
2019-03-08T17:59:10.067Z,11.60
2019-03-08T18:01:50.286Z,15.25
2019-03-08T18:04:39.755Z,7.15
2019-03-08T18:07:29.275Z,11.50
2019-03-08T18:10:17.337Z,12.65
2019-03-08T18:13:06.106Z,10.38
2019-03-08T18:15:55.627Z,6.37
2019-03-08T18:18:44.072Z,6.55
2019-03-08T18:21:28.657Z,12.53
2019-03-08T18:24:23.316Z,16.73
2019-03-08T18:27:07.913Z,14.78
2019-03-08T18:30:15.804Z,15.63
2019-03-08T18:32:54.730Z,8.95
2019-03-08T18:35:43.559Z,11.85
2019-03-08T18:38:38.735Z,8.65
2019-03-08T18:41:38.642Z,6.83
2019-03-08T18:44:28.068Z,13.93
2019-03-08T18:47:11.345Z,11.38
2019-03-08T18:49:49.556Z,8.53
2019-03-08T18:52:48.005Z,10.23
2019-03-08T18:55:37.459Z,8.00
2019-03-08T18:58:15.602Z,10.13
2019-03-08T19:01:11.417Z,9.75
2019-03-08T19:03:53.336Z,10.70
2019-03-08T19:06:44.029Z,13.28
2019-03-08T19:09:22.530Z,14.30
2019-03-08T19:12:17.815Z,7.10
2019-03-08T19:15:01.392Z,15.18
2019-03-08T19:17:52.495Z,17.43
2019-03-08T19:20:45.095Z,20.47
2019-03-08T19:23:50.145Z,12.20
2019-03-08T19:26:34.758Z,17.25
2019-03-08T19:29:15.835Z,12.10
2019-03-08T19:31:53.311Z,11.53
2019-03-08T19:34:41.238Z,14.23
2019-03-08T19:37:22.082Z,7.37
2019-03-08T19:40:30.622Z,12.73
2019-03-08T19:43:18.736Z,12.10
2019-03-08T19:46:06.187Z,16.57
2019-03-08T19:48:54.367Z,10.70
2019-03-08T19:51:43.767Z,14.40
2019-03-08T19:54:45.456Z,11.70
2019-03-08T19:57:26.116Z,9.40
2019-03-08T20:00:14.468Z,13.10
2019-03-08T20:03:19.109Z,13.93
2019-03-08T20:06:17.895Z,10.75
2019-03-08T20:09:19.422Z,20.72
2019-03-08T20:12:18.013Z,17.52
2019-03-08T20:15:10.628Z,10.70
2019-03-08T20:18:06.274Z,17.52
2019-03-08T20:20:52.809Z,16.25
2019-03-08T20:24:00.629Z,21.50
2019-03-08T20:26:49.977Z,14.30
2019-03-08T20:29:27.280Z,18.23
2019-03-08T20:32:07.023Z,13.40
2019-03-08T20:34:52.977Z,16.85
2019-03-08T20:37:36.747Z,15.32
2019-03-08T20:40:14.771Z,10.68
2019-03-08T20:42:50.490Z,16.57
2019-03-08T20:45:29.279Z,14.65
2019-03-08T20:47:59.816Z,14.40
2019-03-08T20:50:30.275Z,16.03
2019-03-08T20:53:00.801Z,22.17
2019-03-08T20:55:31.308Z,19.45
2019-03-08T20:58:02.179Z,8.88
2019-03-08T21:00:33.335Z,22.82
2019-03-08T21:03:03.963Z,16.10
2019-03-08T21:05:34.442Z,11.28
2019-03-08T21:08:04.960Z,25.37
2019-03-08T21:10:35.479Z,14.07
2019-03-08T21:13:05.984Z,18.30
2019-03-08T21:15:36.461Z,25.68
2019-03-08T21:18:06.964Z,10.27
2019-03-08T21:20:37.461Z,15.20
2019-03-08T21:23:07.966Z,18.62
2019-03-08T21:25:38.552Z,13.50
2019-03-08T21:28:10.000Z,18.23
2019-03-08T21:30:40.521Z,19.17
2019-03-08T21:33:11.027Z,12.18
2019-03-08T21:35:41.468Z,14.93
2019-03-08T21:38:12.060Z,13.58
2019-03-08T21:40:42.598Z,12.63
2019-03-08T21:43:13.256Z,16.37
2019-03-08T21:45:44.032Z,17.00
2019-03-08T21:48:14.682Z,20.35
2019-03-08T21:50:45.167Z,14.78
2019-03-08T21:53:15.768Z,11.40
2019-03-08T21:55:46.274Z,13.55
2019-03-08T21:58:16.752Z,27.35
2019-03-08T22:00:47.176Z,15.40
2019-03-08T22:03:17.748Z,14.05
2019-03-08T22:05:48.248Z,13.05
2019-03-08T22:08:18.822Z,13.00
2019-03-08T22:11:11.345Z,11.97
2019-03-08T22:13:41.902Z,15.38
2019-03-08T22:16:12.415Z,14.40
2019-03-08T22:18:42.919Z,16.10
2019-03-08T22:21:13.441Z,16.65
2019-03-08T22:23:43.952Z,17.20
2019-03-08T22:26:14.412Z,16.07
2019-03-08T22:28:45.008Z,9.25
2019-03-08T22:31:15.603Z,13.75
2019-03-08T22:33:46.161Z,10.53
2019-03-08T22:36:16.679Z,18.27
2019-03-08T22:38:47.193Z,10.93
2019-03-08T22:41:17.954Z,19.92
2019-03-08T22:43:48.487Z,11.93
2019-03-08T22:46:19.005Z,13.28
2019-03-08T22:48:50.371Z,16.75
2019-03-08T22:51:20.917Z,14.10
2019-03-08T22:53:51.435Z,9.63
2019-03-08T22:56:21.967Z,14.13
2019-03-08T22:58:52.495Z,6.08
2019-03-08T23:01:23.712Z,14.43
2019-03-08T23:03:54.339Z,12.58
2019-03-08T23:06:24.897Z,13.32
2019-03-08T23:08:55.366Z,11.18
2019-03-08T23:11:25.852Z,16.25
2019-03-08T23:13:56.441Z,9.25
2019-03-08T23:16:27.202Z,11.95
2019-03-08T23:18:57.737Z,16.70
2019-03-08T23:21:28.296Z,9.17
2019-03-08T23:23:58.821Z,10.95
2019-03-08T23:26:30.969Z,12.73
2019-03-08T23:29:08.766Z,10.73
2019-03-08T23:31:48.492Z,6.40
2019-03-08T23:34:19.015Z,8.70
2019-03-08T23:36:49.662Z,13.08
2019-03-08T23:39:20.118Z,17.10
2019-03-08T23:41:50.705Z,10.50
2019-03-08T23:44:21.156Z,7.50
2019-03-08T23:46:51.691Z,9.83
2019-03-08T23:49:22.218Z,14.03
2019-03-08T23:51:52.729Z,9.20
2019-03-08T23:54:23.201Z,7.97
2019-03-08T23:56:53.729Z,11.08
2019-03-08T23:59:24.236Z,17.30
